Accueil
METAR-TAF:

METAR-TAF

Aéroports :

Claremore, Oklahoma, États-Unis

latitude: 36-17-40N, longitude: 095-28-47W, altitude: 221 m

Observation

Le bulletin a été fait il y a 16 minutes, à 00:15 UTC
Vent 7 kt de nord avec des rafales jusqu'à 17 kt
Température -4°C
Humidité 68%
Pression 1036 hPa
Visibilité: 16.1 km
Ciel clair

METAR: KGCM 120015Z AUTO 01007G17KT 10SM CLR M04/M09 A3058 RMK AO2

Heure: 18:31 (00:31 UTC)


TAF: absent

Observations et prévisions météorologiques de plus de 4000 aéroports (messages METAR et TAF).

Les stations disponibles sont représentées par des disques jaunes et rouges sur la carte.

Passer la souris dessus pour voir le nom de la station.

Cliquer dessus pour voir les observations et prévisions météorologiques.

Pour changer de carte: cliquez sur les boutons verts avec une croix noire pour zoomer, sur le bouton vert avec un tiret pour effectuer un zoom arrière, ou sur les flèches vertes pour les cartes adjacentes.


METAR-TAF: